createdAt,value
2023-03-20T00:03:46.966Z,38.17
2023-03-20T00:08:42.455Z,29.33
2023-03-20T00:13:35.837Z,29.27
2023-03-20T00:18:30.395Z,32.50
2023-03-20T00:23:23.562Z,31.20
2023-03-20T00:28:32.651Z,29.87
2023-03-20T00:33:27.180Z,32.67
2023-03-20T00:38:21.738Z,31.47
2023-03-20T00:43:16.343Z,52.10
2023-03-20T00:48:12.788Z,46.43
2023-03-20T00:53:06.172Z,41.03
2023-03-20T00:58:06.749Z,32.63
2023-03-20T01:03:00.883Z,31.77
2023-03-20T01:07:54.017Z,30.13
2023-03-20T01:12:49.063Z,31.50
2023-03-20T01:17:43.875Z,27.37
2023-03-20T01:22:37.769Z,33.07
2023-03-20T01:27:32.234Z,31.87
2023-03-20T01:32:25.516Z,31.83
2023-03-20T01:37:28.173Z,30.30
2023-03-20T01:42:26.288Z,32.93
2023-03-20T01:47:22.196Z,28.77
2023-03-20T01:52:16.377Z,33.83
2023-03-20T01:57:15.281Z,55.07
2023-03-20T02:02:15.577Z,45.10
2023-03-20T02:07:12.181Z,37.63
2023-03-20T02:12:14.233Z,34.63
2023-03-20T02:17:10.767Z,31.80
2023-03-20T02:22:31.748Z,33.53
2023-03-20T02:27:34.450Z,36.50
2023-03-20T02:32:58.907Z,40.87
2023-03-20T02:38:23.717Z,50.67
2023-03-20T02:43:22.526Z,41.83
2023-03-20T02:48:28.512Z,40.13
2023-03-20T02:53:32.500Z,39.77
2023-03-20T02:58:29.753Z,35.33
2023-03-20T03:03:30.070Z,33.30
2023-03-20T03:08:36.431Z,31.50
2023-03-20T03:13:33.749Z,33.17
2023-03-20T03:18:29.318Z,30.43
2023-03-20T03:23:28.124Z,31.60
2023-03-20T03:28:30.530Z,29.50
2023-03-20T03:33:26.449Z,26.97
2023-03-20T03:38:31.643Z,27.37
2023-03-20T03:43:34.396Z,25.33
2023-03-20T03:48:32.710Z,28.50
2023-03-20T03:53:32.734Z,29.27
2023-03-20T03:58:33.238Z,34.55
2023-03-20T04:03:33.033Z,29.25
2023-03-20T04:08:26.310Z,30.03
2023-03-20T04:13:19.571Z,29.63
2023-03-20T04:18:16.790Z,30.13
2023-03-20T04:23:11.533Z,53.10
2023-03-20T04:28:05.230Z,51.67
2023-03-20T04:33:07.650Z,40.87
2023-03-20T04:38:11.430Z,49.73
2023-03-20T04:43:06.062Z,66.50
2023-03-20T04:48:04.115Z,39.30
2023-03-20T04:52:58.408Z,32.03
2023-03-20T04:57:54.673Z,37.20
2023-03-20T05:02:48.448Z,38.40
2023-03-20T05:07:43.117Z,44.90
2023-03-20T05:12:41.459Z,39.53
2023-03-20T05:17:39.033Z,36.07
2023-03-20T05:22:41.145Z,27.57
2023-03-20T05:27:39.373Z,33.33
2023-03-20T05:33:03.269Z,30.67
2023-03-20T05:38:07.719Z,34.13
2023-03-20T05:43:16.865Z,39.00
2023-03-20T05:48:29.971Z,36.80
2023-03-20T05:53:42.399Z,33.67
2023-03-20T05:59:02.932Z,40.87
2023-03-20T06:04:07.267Z,38.47
2023-03-20T06:09:23.293Z,50.47
2023-03-20T06:14:17.237Z,43.60
2023-03-20T06:19:18.326Z,37.30
2023-03-20T06:24:12.464Z,39.17
2023-03-20T06:29:06.946Z,35.30
2023-03-20T06:34:01.294Z,41.50
2023-03-20T06:38:57.580Z,58.63
2023-03-20T06:43:52.920Z,41.40
2023-03-20T06:48:48.848Z,48.35
2023-03-20T06:53:44.277Z,33.72
2023-03-20T06:58:47.401Z,33.63
2023-03-20T07:03:41.400Z,26.73
2023-03-20T07:08:37.028Z,24.30
2023-03-20T07:13:32.654Z,23.65
2023-03-20T07:18:50.512Z,21.90
2023-03-20T07:23:57.204Z,23.23
2023-03-20T07:28:52.210Z,26.00
2023-03-20T07:33:52.535Z,23.45
2023-03-20T07:38:46.424Z,22.77
2023-03-20T07:43:39.859Z,21.23
2023-03-20T07:49:03.492Z,22.73
2023-03-20T07:53:56.771Z,24.92
2023-03-20T07:58:52.835Z,18.70
2023-03-20T08:04:02.915Z,19.40
2023-03-20T08:08:57.924Z,18.90
2023-03-20T08:13:56.607Z,23.17
2023-03-20T08:18:50.701Z,21.38
2023-03-20T08:23:44.195Z,19.42
2023-03-20T08:28:47.427Z,26.33
2023-03-20T08:33:42.949Z,21.92
2023-03-20T08:38:36.321Z,20.00
2023-03-20T08:43:34.180Z,21.75
2023-03-20T08:48:29.804Z,18.52
2023-03-20T08:53:23.157Z,20.38
2023-03-20T08:58:16.512Z,16.27
2023-03-20T09:03:15.968Z,19.17
2023-03-20T09:08:13.368Z,15.70
2023-03-20T09:13:23.753Z,18.15
2023-03-20T09:18:20.614Z,15.32
2023-03-20T09:23:15.402Z,15.45
2023-03-20T09:28:08.869Z,13.20
2023-03-20T09:33:02.229Z,13.20
2023-03-20T09:37:59.404Z,14.15
2023-03-20T09:43:01.867Z,13.07
2023-03-20T09:48:02.540Z,14.85
2023-03-20T09:53:07.306Z,14.30
2023-03-20T09:58:11.606Z,14.82
2023-03-20T10:03:06.364Z,17.92
2023-03-20T10:08:03.150Z,14.63
2023-03-20T10:13:08.181Z,13.52
2023-03-20T10:18:06.831Z,16.50
2023-03-20T10:23:08.647Z,19.92
2023-03-20T10:28:04.492Z,18.95
2023-03-20T10:33:13.470Z,12.98
2023-03-20T10:38:23.821Z,15.68
2023-03-20T10:43:21.521Z,14.45
2023-03-20T10:48:24.796Z,12.40
2023-03-20T10:53:29.119Z,9.27
2023-03-20T10:58:24.709Z,10.57
2023-03-20T11:03:30.659Z,9.85
2023-03-20T11:08:25.700Z,10.80
2023-03-20T11:13:29.490Z,9.57
2023-03-20T11:18:33.197Z,10.85
2023-03-20T11:23:28.186Z,6.45
2023-03-20T11:28:32.289Z,6.82
2023-03-20T11:33:28.098Z,13.15
2023-03-20T11:38:22.655Z,7.65
2023-03-20T11:43:19.740Z,6.10
2023-03-20T11:48:22.942Z,6.47
2023-03-20T11:53:24.850Z,6.57
2023-03-20T11:58:18.641Z,5.28
2023-03-20T12:03:40.588Z,8.25
2023-03-20T12:08:39.798Z,8.90
2023-03-20T12:13:38.934Z,8.30
2023-03-20T12:18:35.918Z,8.15
2023-03-20T12:23:59.382Z,8.40
2023-03-20T12:28:57.542Z,8.57
2023-03-20T12:33:56.073Z,10.70
2023-03-20T12:38:50.753Z,11.35
2023-03-20T12:44:04.470Z,9.60
2023-03-20T12:49:12.530Z,7.95
2023-03-20T12:54:23.748Z,8.15
2023-03-20T12:59:34.218Z,10.77
2023-03-20T13:04:56.688Z,8.75
2023-03-20T13:10:04.659Z,8.63
2023-03-20T13:15:06.469Z,8.90
2023-03-20T13:20:19.205Z,6.95
2023-03-20T13:25:26.358Z,7.63
2023-03-20T13:30:28.061Z,7.53
2023-03-20T13:35:34.326Z,8.90
2023-03-20T13:40:38.699Z,7.72
2023-03-20T13:45:37.758Z,11.35
2023-03-20T13:50:45.954Z,11.38
2023-03-20T13:55:54.673Z,7.25
2023-03-20T14:00:56.792Z,6.63
2023-03-20T14:10:47.979Z,7.57
2023-03-20T14:15:54.789Z,6.38
2023-03-20T14:20:57.062Z,7.10
2023-03-20T14:25:56.065Z,8.73
2023-03-20T14:30:50.843Z,11.68
2023-03-20T14:35:46.623Z,7.05
2023-03-20T14:40:49.064Z,7.25
2023-03-20T14:45:46.441Z,6.88
2023-03-20T14:50:43.475Z,7.95
2023-03-20T14:55:51.398Z,10.75
2023-03-20T15:00:49.240Z,7.43
2023-03-20T15:05:42.987Z,8.23
2023-03-20T15:10:38.671Z,10.57
2023-03-20T15:15:32.652Z,8.10
2023-03-20T15:20:29.481Z,8.40
2023-03-20T15:25:24.786Z,9.00
2023-03-20T15:30:20.217Z,6.57
2023-03-20T15:35:16.089Z,9.35
2023-03-20T15:40:23.027Z,8.07
2023-03-20T15:45:28.746Z,8.77
2023-03-20T15:50:21.973Z,10.73
2023-03-20T15:55:20.831Z,9.82
2023-03-20T16:00:17.906Z,52.13
2023-03-20T16:05:14.574Z,20.88
2023-03-20T16:10:20.446Z,14.90
2023-03-20T16:15:18.058Z,12.15
2023-03-20T16:20:15.898Z,12.60
2023-03-20T16:25:46.876Z,16.05
2023-03-20T16:31:12.647Z,13.95
2023-03-20T16:36:12.964Z,14.93
2023-03-20T16:42:26.264Z,18.85
2023-03-20T16:54:57.506Z,26.73
2023-03-20T17:00:09.748Z,37.80
2023-03-20T17:05:10.323Z,37.08
2023-03-20T17:10:22.012Z,30.08
2023-03-20T17:15:24.453Z,36.53
2023-03-20T17:20:36.535Z,34.10
2023-03-20T17:25:49.368Z,31.40
2023-03-20T17:31:00.911Z,33.22
2023-03-20T17:36:11.062Z,29.58
2023-03-20T17:41:52.355Z,26.88
2023-03-20T17:46:59.198Z,31.63
2023-03-20T17:52:13.713Z,27.80
2023-03-20T17:57:25.153Z,27.83
2023-03-20T18:02:26.601Z,28.30
2023-03-20T18:07:21.164Z,43.92
2023-03-20T18:12:16.982Z,38.50
2023-03-20T18:17:18.202Z,35.90
2023-03-20T18:27:54.604Z,29.73
2023-03-20T18:39:13.537Z,21.27
2023-03-20T18:44:35.529Z,22.25
2023-03-20T18:50:36.923Z,22.48
2023-03-20T18:56:20.667Z,18.27
2023-03-20T19:01:44.273Z,19.70
2023-03-20T19:08:09.972Z,26.40
2023-03-20T19:31:17.533Z,87.40
2023-03-20T19:41:48.465Z,93.15
2023-03-20T19:46:55.757Z,208.02
2023-03-20T19:52:05.597Z,134.80
2023-03-20T20:02:28.666Z,59.50
2023-03-20T20:13:00.181Z,59.50
2023-03-20T20:18:27.139Z,44.45
2023-03-20T20:23:40.715Z,40.10
2023-03-20T20:41:12.509Z,46.78
2023-03-20T20:46:17.909Z,36.73
2023-03-20T20:51:29.242Z,38.00
2023-03-20T20:56:23.896Z,37.22
2023-03-20T21:01:19.987Z,37.30
2023-03-20T21:06:13.322Z,41.60
2023-03-20T21:11:08.570Z,50.63
2023-03-20T21:16:02.049Z,43.13
2023-03-20T21:20:55.800Z,36.97
2023-03-20T21:25:49.617Z,45.85
2023-03-20T21:31:09.100Z,37.25
2023-03-20T21:35:57.888Z,35.47
2023-03-20T21:40:51.433Z,33.67
2023-03-20T21:51:49.381Z,29.73
2023-03-20T21:56:51.433Z,31.58
2023-03-20T22:07:32.831Z,34.63
2023-03-20T22:12:56.280Z,82.93
2023-03-20T22:28:15.777Z,52.05
2023-03-20T22:33:51.381Z,46.65
2023-03-20T22:48:33.820Z,51.00
2023-03-20T22:53:27.199Z,40.85
2023-03-20T22:58:20.656Z,33.67
2023-03-20T23:03:29.541Z,36.20
2023-03-20T23:08:28.494Z,30.77
2023-03-20T23:13:23.041Z,46.00
2023-03-20T23:18:16.476Z,48.60
2023-03-20T23:23:09.858Z,46.28
2023-03-20T23:28:04.929Z,33.85
2023-03-20T23:32:58.076Z,35.75
2023-03-20T23:37:51.315Z,52.28
2023-03-20T23:42:44.741Z,43.38
2023-03-20T23:47:44.842Z,40.03
2023-03-20T23:52:40.820Z,34.45
2023-03-20T23:57:42.175Z,28.27
